»·PEaware :: N350KT KLAS-F70

N350KT :: KLAS-F70

FLIGHT INFORMATION

Flight Status: Arrived
Operator: Privately registered:
United States
More flights under this callsign
Pilot: Aundrey S. (17120)
Aircraft: ECLIPSE 500
(EA50)
More flights by this aircraft type
Origin: KLAS McCarran Intl
United States
Destination: F70 French Valley
United States
More flights between these airports :: More routes between these airports
Route: +BOACH8 HEC DAWNA HDF
File this flight plan on PilotEdge
Remarks:
Altitude:
(Current/Filed)
30,000ft
Speed:
(Current/Filed)
450kts
Departed: 15-May-19 08:24 PM
Arrived: 15-May-19 09:19 PM
Distance/Time
Traveled:
179nm/0:55
Distance/Time
To Go:
Arrived

Flight Plot

Page will automatically refresh every two minutes.

Flight plan parsing failed; only flown route is shown


Map Options




Map Legend


Flown Route
Filed Route
Departure Airport
Arrival Airport
Navaid (VOR, NDB)
Fix

Horizontal Profiles

Position Reports

Time Latitude Longitude Heading Altitude Ground
Speed
15-May-19 19:58 36.080459 -115.170842 125 2169ft 0kts
15-May-19 19:59 36.080459 -115.170842 125 2169ft 0kts
15-May-19 20:00 36.080459 -115.170842 125 2169ft 0kts
15-May-19 20:01 36.080459 -115.170842 125 2169ft 0kts
15-May-19 20:02 36.080459 -115.170842 125 2169ft 0kts
15-May-19 20:03 36.080459 -115.170842 125 2169ft 0kts
15-May-19 20:04 36.080459 -115.170842 125 2169ft 0kts
15-May-19 20:05 36.080459 -115.170842 125 2169ft 0kts
15-May-19 20:06 36.080459 -115.170842 125 2169ft 0kts
15-May-19 20:07 36.080459 -115.170842 125 2169ft 0kts
15-May-19 20:08 36.080459 -115.170842 125 2169ft 0kts
15-May-19 20:09 36.080459 -115.170842 125 2169ft 0kts
15-May-19 20:10 36.080459 -115.170842 125 2169ft 0kts
15-May-19 20:11 36.080459 -115.170842 125 2169ft 0kts
15-May-19 20:12 36.080459 -115.170842 125 2169ft 0kts
15-May-19 20:13 36.080459 -115.170842 125 2169ft 0kts
15-May-19 20:14 36.080459 -115.170842 125 2169ft 0kts
15-May-19 20:15 36.080459 -115.170842 125 2169ft 0kts
15-May-19 20:16 36.080499 -115.170236 73 2168ft 5kts
15-May-19 20:17 36.082706 -115.168552 24 2160ft 17kts
15-May-19 20:18 36.086760 -115.166228 23 2143ft 22kts
15-May-19 20:19 36.093207 -115.162537 24 2113ft 26kts
15-May-19 20:20 36.098401 -115.159583 25 2094ft 13kts
15-May-19 20:21 36.099836 -115.157702 70 2085ft 1kts
15-May-19 20:22 36.099864 -115.157545 83 2085ft 0kts
15-May-19 20:23 36.097377 -115.157760 205 2089ft 53kts
15-May-19 20:24 36.067341 -115.174856 206 3023ft 158kts
15-May-19 20:25 36.026825 -115.198121 205 5894ft 160kts
15-May-19 20:26 35.999245 -115.240043 237 8505ft 168kts
15-May-19 20:27 35.976229 -115.290870 235 10970ft 171kts
15-May-19 20:28 35.933936 -115.305402 188 13255ft 168kts
15-May-19 20:29 35.887208 -115.311252 190 15371ft 171kts
15-May-19 20:30 35.838619 -115.312382 182 17354ft 179kts
15-May-19 20:31 35.788287 -115.306971 182 19188ft 184kts
15-May-19 20:32 35.736424 -115.301196 183 20915ft 188kts
15-May-19 20:33 35.683428 -115.295650 193 22481ft 189kts
15-May-19 20:34 35.642793 -115.342994 226 22839ft 233kts
15-May-19 20:35 35.593888 -115.408371 226 22836ft 281kts
15-May-19 20:36 35.540836 -115.479517 226 23496ft 277kts
15-May-19 20:37 35.488149 -115.550119 226 24481ft 279kts
15-May-19 20:38 35.435253 -115.620861 226 25459ft 279kts
15-May-19 20:39 35.382770 -115.690889 226 26453ft 276kts
15-May-19 20:40 35.330701 -115.760235 226 27307ft 278kts
15-May-19 20:41 35.278336 -115.829812 226 28104ft 278kts
15-May-19 20:42 35.225993 -115.899251 226 28893ft 277kts
15-May-19 20:43 35.173469 -115.968772 226 29460ft 281kts
15-May-19 20:44 35.120180 -116.039147 226 29852ft 286kts
15-May-19 20:45 35.063478 -116.113854 226 29094ft 319kts
15-May-19 20:46 35.002860 -116.193590 226 27841ft 318kts
15-May-19 20:47 34.942895 -116.272259 227 26583ft 315kts
15-May-19 20:48 34.883792 -116.349627 227 25338ft 310kts
15-May-19 20:49 34.825377 -116.425905 227 24133ft 306kts
15-May-19 20:50 34.767067 -116.499815 226 22853ft 302kts
15-May-19 20:51 34.708483 -116.571976 226 21636ft 299kts
15-May-19 20:52 34.650381 -116.643348 226 20409ft 296kts
15-May-19 20:53 34.593010 -116.713693 225 19226ft 292kts
15-May-19 20:55 34.536019 -116.783415 225 18037ft 290kts
15-May-19 20:56 34.480229 -116.851556 225 16887ft 283kts
15-May-19 20:57 34.425329 -116.918441 225 15788ft 276kts
15-May-19 20:58 34.375130 -116.979504 224 14692ft 253kts
15-May-19 20:59 34.326224 -117.038872 224 13678ft 238kts
15-May-19 21:00 34.282451 -117.091929 224 13165ft 224kts
15-May-19 21:01 34.226921 -117.118797 191 13163ft 224kts
15-May-19 21:02 34.170401 -117.127119 191 13178ft 204kts
15-May-19 21:03 34.113942 -117.135516 191 12374ft 209kts
15-May-19 21:04 34.058881 -117.143699 190 10557ft 198kts
15-May-19 21:05 34.013597 -117.175845 221 8737ft 196kts
15-May-19 21:06 33.973900 -117.219942 221 6918ft 194kts
15-May-19 21:07 33.936044 -117.261863 221 6033ft 169kts
15-May-19 21:08 33.889971 -117.268042 160 5771ft 205kts
15-May-19 21:09 33.841446 -117.237691 120 4695ft 202kts
15-May-19 21:10 33.829555 -117.171934 104 4636ft 198kts
15-May-19 21:11 33.817865 -117.106814 105 4607ft 199kts
15-May-19 21:12 33.785145 -117.072938 192 4486ft 180kts
15-May-19 21:13 33.736457 -117.085699 192 3855ft 176kts
15-May-19 21:14 33.694752 -117.096625 195 3570ft 135kts
15-May-19 21:15 33.661620 -117.105407 195 2939ft 116kts
15-May-19 21:15 33.635792 -117.112236 195 2432ft 105kts
15-May-19 21:17 33.603365 -117.120842 194 1807ft 101kts
15-May-19 21:18 33.576916 -117.127762 192 1353ft 81kts
15-May-19 21:19 33.570010 -117.129677 240 1353ft 3kts
15-May-19 21:20 33.570503 -117.130267 12 1353ft 11kts
15-May-19 21:20 33.573264 -117.129846 285 1353ft 6kts

Navigation Log

Ident Type
Flight plan parsing failed, navigation log unavailable